Time,TemperatureF,DewpointF,PressureIn,WindDirection,WindDirectionDegrees,WindSpeedMPH,WindSpeedGustMPH,Humidity,HourlyPrecipIn,Conditions,Clouds,dailyrainin,SoftwareType,DateUTC
2013-01-15 00:04:00,11.2,9.1,30.22,WSW,249,0.0,1.0,91,0.00,,,0.00,Wunderground v.1.15,2013-01-15 06:04:00,
2013-01-15 00:09:00,11.6,9.5,30.21,WSW,249,0.0,1.0,91,0.00,,,0.00,Wunderground v.1.15,2013-01-15 06:09:00,
2013-01-15 00:14:00,12.1,9.7,30.21,WSW,239,1.0,3.0,90,0.00,,,0.00,Wunderground v.1.15,2013-01-15 06:14:00,
2013-01-15 00:20:00,13.0,10.6,30.21,SW,232,1.0,1.0,90,0.00,,,0.00,Wunderground v.1.15,2013-01-15 06:20:00,
2013-01-15 00:25:00,13.5,10.9,30.21,WSW,257,1.0,2.0,89,0.00,,,0.00,Wunderground v.1.15,2013-01-15 06:25:00,
2013-01-15 00:30:00,14.2,11.3,30.21,SSW,194,1.0,1.0,88,0.00,,,0.00,Wunderground v.1.15,2013-01-15 06:30:00,
2013-01-15 00:35:00,14.5,11.3,30.21,SSW,212,2.0,2.0,87,0.00,,,0.00,Wunderground v.1.15,2013-01-15 06:35:00,
2013-01-15 00:40:00,14.8,11.4,30.21,WSW,252,1.0,1.0,86,0.00,,,0.00,Wunderground v.1.15,2013-01-15 06:40:00,
2013-01-15 00:46:00,15.0,11.6,30.21,SW,225,1.0,2.0,86,0.00,,,0.00,Wunderground v.1.15,2013-01-15 06:46:00,
2013-01-15 00:51:00,15.1,11.4,30.21,WNW,288,1.0,2.0,85,0.00,,,0.00,Wunderground v.1.15,2013-01-15 06:51:00,
2013-01-15 00:56:00,15.2,11.5,30.20,SW,236,1.0,2.0,85,0.00,,,0.00,Wunderground v.1.15,2013-01-15 06:56:00,
2013-01-15 01:01:00,15.4,11.7,30.21,SW,225,1.0,2.0,85,0.00,,,0.00,Wunderground v.1.15,2013-01-15 07:01:00,
2013-01-15 01:06:00,15.4,11.7,30.20,WSW,239,1.0,2.0,85,0.00,,,0.00,Wunderground v.1.15,2013-01-15 07:06:00,
2013-01-15 01:12:00,15.5,11.5,30.20,SSW,210,1.0,2.0,84,0.00,,,0.00,Wunderground v.1.15,2013-01-15 07:12:00,
2013-01-15 01:17:00,15.6,11.6,30.20,WSW,256,1.0,3.0,84,0.00,,,0.00,Wunderground v.1.15,2013-01-15 07:17:00,
2013-01-15 01:22:00,15.6,11.6,30.20,WSW,255,1.0,2.0,84,0.00,,,0.00,Wunderground v.1.15,2013-01-15 07:22:00,
2013-01-15 01:27:00,15.8,11.8,30.20,SW,231,1.0,2.0,84,0.00,,,0.00,Wunderground v.1.15,2013-01-15 07:27:00,
2013-01-15 01:32:00,15.9,11.7,30.20,WSW,245,2.0,2.0,83,0.00,,,0.00,Wunderground v.1.15,2013-01-15 07:32:00,
2013-01-15 01:38:00,16.1,11.8,30.20,SSW,197,2.0,3.0,83,0.00,,,0.00,Wunderground v.1.15,2013-01-15 07:38:00,
2013-01-15 01:43:00,16.1,11.8,30.20,SSW,210,2.0,2.0,83,0.00,,,0.00,Wunderground v.1.15,2013-01-15 07:43:00,
2013-01-15 01:48:00,16.0,11.7,30.21,WNW,292,1.0,3.0,83,0.00,,,0.00,Wunderground v.1.15,2013-01-15 07:48:00,
2013-01-15 01:53:00,15.8,11.6,30.21,WSW,245,2.0,3.0,83,0.00,,,0.00,Wunderground v.1.15,2013-01-15 07:53:00,
2013-01-15 01:58:00,15.8,11.6,30.21,WSW,249,2.0,3.0,83,0.00,,,0.00,Wunderground v.1.15,2013-01-15 07:58:00,
2013-01-15 02:04:00,15.9,11.7,30.21,West,268,1.0,2.0,83,0.00,,,0.00,Wunderground v.1.15,2013-01-15 08:04:00,
2013-01-15 02:09:00,15.8,11.6,30.21,SW,232,1.0,3.0,83,0.00,,,0.00,Wunderground v.1.15,2013-01-15 08:09:00,
2013-01-15 02:14:00,15.6,11.4,30.21,WSW,248,1.0,1.0,83,0.00,,,0.00,Wunderground v.1.15,2013-01-15 08:14:00,
2013-01-15 02:19:00,15.3,11.1,30.21,SW,222,0.0,1.0,83,0.00,,,0.00,Wunderground v.1.15,2013-01-15 08:19:00,
2013-01-15 02:24:00,15.0,10.8,30.21,SW,227,0.0,1.0,83,0.00,,,0.00,Wunderground v.1.15,2013-01-15 08:24:00,
2013-01-15 02:30:00,14.8,10.8,30.21,WSW,246,0.0,1.0,84,0.00,,,0.00,Wunderground v.1.15,2013-01-15 08:30:00,
2013-01-15 02:35:00,14.7,10.7,30.21,WSW,248,0.0,1.0,84,0.00,,,0.00,Wunderground v.1.15,2013-01-15 08:35:00,
2013-01-15 02:40:00,14.5,10.8,30.21,WSW,246,0.0,1.0,85,0.00,,,0.00,Wunderground v.1.15,2013-01-15 08:40:00,
2013-01-15 02:45:00,14.4,10.7,30.21,WSW,246,0.0,1.0,85,0.00,,,0.00,Wunderground v.1.15,2013-01-15 08:45:00,
2013-01-15 02:51:00,14.2,10.5,30.21,WSW,256,0.0,1.0,85,0.00,,,0.00,Wunderground v.1.15,2013-01-15 08:51:00,
2013-01-15 02:56:00,14.1,10.4,30.21,SW,226,0.0,1.0,85,0.00,,,0.00,Wunderground v.1.15,2013-01-15 08:56:00,
2013-01-15 03:01:00,13.8,10.4,30.20,SW,228,0.0,1.0,86,0.00,,,0.00,Wunderground v.1.15,2013-01-15 09:01:00,
2013-01-15 03:06:00,13.6,10.2,30.20,SW,232,0.0,1.0,86,0.00,,,0.00,Wunderground v.1.15,2013-01-15 09:06:00,
2013-01-15 03:11:00,13.4,10.0,30.20,SW,232,0.0,1.0,86,0.00,,,0.00,Wunderground v.1.15,2013-01-15 09:11:00,
2013-01-15 03:16:00,13.3,10.2,30.20,WSW,248,0.0,1.0,87,0.00,,,0.00,Wunderground v.1.15,2013-01-15 09:16:00,
2013-01-15 03:22:00,13.2,10.1,30.20,WSW,248,0.0,1.0,87,0.00,,,0.00,Wunderground v.1.15,2013-01-15 09:22:00,
2013-01-15 03:27:00,13.1,10.0,30.20,WSW,246,0.0,1.0,87,0.00,,,0.00,Wunderground v.1.15,2013-01-15 09:27:00,
2013-01-15 03:32:00,13.1,10.0,30.20,WSW,252,0.0,1.0,87,0.00,,,0.00,Wunderground v.1.15,2013-01-15 09:32:00,
2013-01-15 03:37:00,12.9,9.8,30.20,SW,228,0.0,1.0,87,0.00,,,0.00,Wunderground v.1.15,2013-01-15 09:37:00,
2013-01-15 03:42:00,12.9,9.8,30.20,SW,228,0.0,1.0,87,0.00,,,0.00,Wunderground v.1.15,2013-01-15 09:42:00,
2013-01-15 03:48:00,12.8,9.7,30.20,SW,235,0.0,1.0,87,0.00,,,0.00,Wunderground v.1.15,2013-01-15 09:48:00,
2013-01-15 03:53:00,12.7,9.6,30.19,WSW,249,0.0,1.0,87,0.00,,,0.00,Wunderground v.1.15,2013-01-15 09:53:00,
2013-01-15 03:58:00,12.6,9.5,30.19,SW,236,0.0,1.0,87,0.00,,,0.00,Wunderground v.1.15,2013-01-15 09:58:00,
2013-01-15 04:03:00,12.6,9.7,30.19,WSW,248,0.0,1.0,88,0.00,,,0.00,Wunderground v.1.15,2013-01-15 10:03:00,
2013-01-15 04:08:00,12.6,9.5,30.19,WSW,248,0.0,1.0,87,0.00,,,0.00,Wunderground v.1.15,2013-01-15 10:08:00,
2013-01-15 04:14:00,12.4,9.3,30.19,WSW,248,0.0,1.0,87,0.00,,,0.00,Wunderground v.1.15,2013-01-15 10:14:00,
2013-01-15 04:19:00,12.3,9.4,30.19,SW,232,0.0,1.0,88,0.00,,,0.00,Wunderground v.1.15,2013-01-15 10:19:00,
2013-01-15 04:24:00,12.2,9.3,30.19,SW,232,0.0,1.0,88,0.00,,,0.00,Wunderground v.1.15,2013-01-15 10:24:00,
2013-01-15 04:29:00,12.1,9.2,30.18,SW,232,0.0,1.0,88,0.00,,,0.00,Wunderground v.1.15,2013-01-15 10:29:00,
2013-01-15 04:34:00,11.9,9.0,30.18,SW,232,0.0,1.0,88,0.00,,,0.00,Wunderground v.1.15,2013-01-15 10:34:00,
2013-01-15 04:40:00,11.8,8.9,30.18,SW,232,0.0,1.0,88,0.00,,,0.00,Wunderground v.1.15,2013-01-15 10:40:00,
2013-01-15 04:45:00,11.7,8.8,30.18,SW,232,0.0,1.0,88,0.00,,,0.00,Wunderground v.1.15,2013-01-15 10:45:00,
2013-01-15 04:50:00,11.6,9.0,30.18,SW,232,0.0,1.0,89,0.00,,,0.00,Wunderground v.1.15,2013-01-15 10:50:00,
2013-01-15 04:55:00,11.5,8.9,30.17,SW,232,0.0,1.0,89,0.00,,,0.00,Wunderground v.1.15,2013-01-15 10:55:00,
2013-01-15 05:00:00,11.4,8.8,30.17,SW,232,0.0,1.0,89,0.00,,,0.00,Wunderground v.1.15,2013-01-15 11:00:00,
2013-01-15 05:06:00,11.3,8.7,30.17,SW,232,0.0,1.0,89,0.00,,,0.00,Wunderground v.1.15,2013-01-15 11:06:00,
2013-01-15 05:11:00,11.3,8.7,30.17,SW,232,0.0,1.0,89,0.00,,,0.00,Wunderground v.1.15,2013-01-15 11:11:00,
2013-01-15 05:16:00,11.3,8.7,30.17,SW,233,0.0,1.0,89,0.00,,,0.00,Wunderground v.1.15,2013-01-15 11:16:00,
2013-01-15 05:21:00,11.4,8.8,30.17,SW,232,0.0,1.0,89,0.00,,,0.00,Wunderground v.1.15,2013-01-15 11:21:00,
2013-01-15 05:26:00,11.3,8.7,30.17,SW,232,0.0,1.0,89,0.00,,,0.00,Wunderground v.1.15,2013-01-15 11:26:00,
2013-01-15 05:32:00,11.2,8.6,30.17,SW,232,0.0,1.0,89,0.00,,,0.00,Wunderground v.1.15,2013-01-15 11:32:00,
2013-01-15 05:37:00,11.2,8.6,30.17,SW,232,0.0,1.0,89,0.00,,,0.00,Wunderground v.1.15,2013-01-15 11:37:00,
2013-01-15 05:42:00,11.1,8.5,30.17,SW,232,0.0,1.0,89,0.00,,,0.00,Wunderground v.1.15,2013-01-15 11:42:00,
2013-01-15 05:47:00,11.1,8.7,30.17,SW,232,0.0,1.0,90,0.00,,,0.00,Wunderground v.1.15,2013-01-15 11:47:00,
2013-01-15 05:52:00,11.0,8.4,30.17,SW,232,0.0,1.0,89,0.00,,,0.00,Wunderground v.1.15,2013-01-15 11:52:00,
2013-01-15 05:58:00,11.0,8.6,30.17,SW,228,0.0,1.0,90,0.00,,,0.00,Wunderground v.1.15,2013-01-15 11:58:00,
2013-01-15 06:03:00,10.9,8.3,30.17,SW,228,0.0,1.0,89,0.00,,,0.00,Wunderground v.1.15,2013-01-15 12:03:00,
2013-01-15 06:08:00,10.7,8.3,30.17,SW,217,0.0,1.0,90,0.00,,,0.00,Wunderground v.1.15,2013-01-15 12:08:00,
2013-01-15 06:13:00,10.5,7.9,30.17,SW,217,0.0,1.0,89,0.00,,,0.00,Wunderground v.1.15,2013-01-15 12:13:00,
2013-01-15 06:18:00,10.4,8.0,30.17,SW,214,0.0,1.0,90,0.00,,,0.00,Wunderground v.1.15,2013-01-15 12:18:00,
2013-01-15 06:24:00,10.3,8.0,30.17,SW,214,0.0,1.0,90,0.00,,,0.00,Wunderground v.1.15,2013-01-15 12:24:00,
2013-01-15 06:29:00,10.3,8.0,30.17,SW,214,0.0,1.0,90,0.00,,,0.00,Wunderground v.1.15,2013-01-15 12:29:00,
2013-01-15 06:34:00,10.2,7.9,30.17,SW,214,0.0,1.0,90,0.00,,,0.00,Wunderground v.1.15,2013-01-15 12:34:00,
2013-01-15 06:39:00,10.2,7.9,30.17,SW,214,0.0,1.0,90,0.00,,,0.00,Wunderground v.1.15,2013-01-15 12:39:00,
2013-01-15 06:44:00,10.2,7.9,30.17,SW,214,0.0,1.0,90,0.00,,,0.00,Wunderground v.1.15,2013-01-15 12:44:00,
2013-01-15 06:50:00,10.0,7.7,30.16,SW,214,0.0,1.0,90,0.00,,,0.00,Wunderground v.1.15,2013-01-15 12:50:00,
2013-01-15 06:55:00,9.9,7.6,30.17,SW,214,0.0,1.0,90,0.00,,,0.00,Wunderground v.1.15,2013-01-15 12:55:00,
2013-01-15 07:00:00,9.9,7.6,30.17,SW,214,0.0,1.0,90,0.00,,,0.00,Wunderground v.1.15,2013-01-15 13:00:00,
2013-01-15 07:05:00,9.8,7.5,30.17,SW,232,0.0,1.0,90,0.00,,,0.00,Wunderground v.1.15,2013-01-15 13:05:00,
2013-01-15 07:10:00,9.8,7.7,30.17,SW,221,0.0,1.0,91,0.00,,,0.00,Wunderground v.1.15,2013-01-15 13:10:00,
2013-01-15 07:16:00,9.9,7.8,30.17,SW,222,0.0,1.0,91,0.00,,,0.00,Wunderground v.1.15,2013-01-15 13:16:00,
2013-01-15 07:21:00,9.9,7.8,30.17,SW,222,0.0,1.0,91,0.00,,,0.00,Wunderground v.1.15,2013-01-15 13:21:00,
2013-01-15 07:26:00,9.9,7.8,30.17,SW,222,0.0,1.0,91,0.00,,,0.00,Wunderground v.1.15,2013-01-15 13:26:00,
2013-01-15 07:31:00,9.9,7.8,30.16,SW,221,0.0,1.0,91,0.00,,,0.00,Wunderground v.1.15,2013-01-15 13:31:00,
2013-01-15 07:36:00,9.9,7.6,30.17,SW,222,0.0,1.0,90,0.00,,,0.00,Wunderground v.1.15,2013-01-15 13:36:00,
2013-01-15 07:42:00,9.9,7.6,30.17,SW,222,0.0,1.0,90,0.00,,,0.00,Wunderground v.1.15,2013-01-15 13:42:00,
2013-01-15 07:47:00,9.9,7.6,30.17,SW,222,0.0,1.0,90,0.00,,,0.00,Wunderground v.1.15,2013-01-15 13:47:00,
2013-01-15 07:52:00,10.0,7.9,30.16,SW,222,0.0,1.0,91,0.00,,,0.00,Wunderground v.1.15,2013-01-15 13:52:00,
2013-01-15 07:57:00,10.0,7.7,30.16,SW,222,0.0,1.0,90,0.00,,,0.00,Wunderground v.1.15,2013-01-15 13:57:00,
2013-01-15 08:02:00,9.9,7.6,30.17,SW,222,0.0,1.0,90,0.00,,,0.00,Wunderground v.1.15,2013-01-15 14:02:00,
2013-01-15 08:08:00,10.0,7.7,30.17,SW,222,0.0,1.0,90,0.00,,,0.00,Wunderground v.1.15,2013-01-15 14:08:00,
2013-01-15 08:13:00,9.9,7.6,30.17,SW,222,0.0,1.0,90,0.00,,,0.00,Wunderground v.1.15,2013-01-15 14:13:00,
2013-01-15 08:18:00,9.9,7.6,30.17,SW,222,0.0,1.0,90,0.00,,,0.00,Wunderground v.1.15,2013-01-15 14:18:00,
2013-01-15 08:23:00,9.9,7.6,30.17,SW,222,0.0,1.0,90,0.00,,,0.00,Wunderground v.1.15,2013-01-15 14:23:00,
2013-01-15 08:28:00,9.8,7.5,30.17,SW,222,0.0,1.0,90,0.00,,,0.00,Wunderground v.1.15,2013-01-15 14:28:00,
2013-01-15 08:34:00,9.9,7.8,30.17,SW,222,0.0,1.0,91,0.00,,,0.00,Wunderground v.1.15,2013-01-15 14:34:00,
2013-01-15 08:39:00,10.1,8.0,30.17,SW,222,0.0,1.0,91,0.00,,,0.00,Wunderground v.1.15,2013-01-15 14:39:00,
2013-01-15 08:44:00,10.3,8.2,30.17,SW,222,0.0,1.0,91,0.00,,,0.00,Wunderground v.1.15,2013-01-15 14:44:00,
2013-01-15 08:49:00,10.7,8.6,30.17,SW,228,0.0,1.0,91,0.00,,,0.00,Wunderground v.1.15,2013-01-15 14:49:00,
2013-01-15 08:54:00,10.9,8.8,30.17,SW,228,0.0,1.0,91,0.00,,,0.00,Wunderground v.1.15,2013-01-15 14:54:00,
2013-01-15 09:00:00,11.2,9.1,30.16,WSW,239,0.0,1.0,91,0.00,,,0.00,Wunderground v.1.15,2013-01-15 15:00:00,
2013-01-15 09:05:00,11.6,9.5,30.17,West,274,0.0,1.0,91,0.00,,,0.00,Wunderground v.1.15,2013-01-15 15:05:00,
2013-01-15 09:10:00,12.1,9.7,30.17,SW,236,0.0,1.0,90,0.00,,,0.00,Wunderground v.1.15,2013-01-15 15:10:00,
2013-01-15 09:15:00,12.4,9.8,30.17,SW,236,0.0,1.0,89,0.00,,,0.00,Wunderground v.1.15,2013-01-15 15:15:00,
2013-01-15 09:20:00,12.9,10.3,30.17,SSW,203,0.0,1.0,89,0.00,,,0.00,Wunderground v.1.15,2013-01-15 15:20:00,
2013-01-15 09:26:00,13.3,10.7,30.16,WSW,257,0.0,1.0,89,0.00,,,0.00,Wunderground v.1.15,2013-01-15 15:26:00,
2013-01-15 09:31:00,13.8,10.9,30.16,WSW,252,0.0,1.0,88,0.00,,,0.00,Wunderground v.1.15,2013-01-15 15:31:00,
2013-01-15 09:36:00,14.3,11.4,30.16,West,263,0.0,1.0,88,0.00,,,0.00,Wunderground v.1.15,2013-01-15 15:36:00,
2013-01-15 09:41:00,14.8,11.6,30.16,West,259,0.0,1.0,87,0.00,,,0.00,Wunderground v.1.15,2013-01-15 15:41:00,
2013-01-15 09:46:00,15.2,11.8,30.16,SSW,195,1.0,1.0,86,0.00,,,0.00,Wunderground v.1.15,2013-01-15 15:46:00,
2013-01-15 09:51:00,15.7,12.0,30.16,WSW,239,1.0,1.0,85,0.00,,,0.00,Wunderground v.1.15,2013-01-15 15:51:00,
2013-01-15 09:56:00,16.2,12.2,30.16,WSW,248,1.0,3.0,84,0.00,,,0.00,Wunderground v.1.15,2013-01-15 15:56:00,
2013-01-15 10:01:00,16.5,12.5,30.15,WSW,252,1.0,1.0,84,0.00,,,0.00,Wunderground v.1.15,2013-01-15 16:01:00,
2013-01-15 10:06:00,16.8,12.5,30.15,SSW,200,1.0,3.0,83,0.00,,,0.00,Wunderground v.1.15,2013-01-15 16:06:00,
2013-01-15 10:11:00,17.1,12.8,30.15,West,259,1.0,1.0,83,0.00,,,0.00,Wunderground v.1.15,2013-01-15 16:11:00,
2013-01-15 10:17:00,17.5,12.9,30.15,WSW,255,1.0,1.0,82,0.00,,,0.00,Wunderground v.1.15,2013-01-15 16:17:00,
2013-01-15 10:22:00,17.8,13.0,30.15,WSW,243,1.0,2.0,81,0.00,,,0.00,Wunderground v.1.15,2013-01-15 16:22:00,
2013-01-15 10:27:00,18.3,13.4,30.15,WSW,256,1.0,2.0,81,0.00,,,0.00,Wunderground v.1.15,2013-01-15 16:27:00,
2013-01-15 10:32:00,18.7,13.6,30.15,WSW,252,1.0,1.0,80,0.00,,,0.00,Wunderground v.1.15,2013-01-15 16:32:00,
2013-01-15 10:37:00,19.1,13.7,30.14,WSW,248,1.0,3.0,79,0.00,,,0.00,Wunderground v.1.15,2013-01-15 16:37:00,
2013-01-15 10:42:00,19.6,13.9,30.14,West,259,1.0,2.0,78,0.00,,,0.00,Wunderground v.1.15,2013-01-15 16:42:00,
2013-01-15 10:48:00,20.0,13.9,30.14,SSW,207,2.0,4.0,77,0.00,,,0.00,Wunderground v.1.15,2013-01-15 16:48:00,
2013-01-15 10:53:00,20.4,14.0,30.14,WSW,242,2.0,2.0,76,0.00,,,0.00,Wunderground v.1.15,2013-01-15 16:53:00,
2013-01-15 10:58:00,20.7,14.3,30.13,SW,218,1.0,2.0,76,0.00,,,0.00,Wunderground v.1.15,2013-01-15 16:58:00,
2013-01-15 11:03:00,21.0,14.6,30.13,WSW,252,2.0,2.0,76,0.00,,,0.00,Wunderground v.1.15,2013-01-15 17:03:00,
2013-01-15 11:08:00,21.4,14.7,30.13,SW,219,2.0,4.0,75,0.00,,,0.00,Wunderground v.1.15,2013-01-15 17:08:00,
2013-01-15 11:14:00,21.8,15.4,30.13,SSW,210,2.0,3.0,76,0.00,,,0.00,Wunderground v.1.15,2013-01-15 17:14:00,
2013-01-15 11:19:00,22.1,15.7,30.12,WSW,241,2.0,3.0,76,0.00,,,0.00,Wunderground v.1.15,2013-01-15 17:19:00,
2013-01-15 11:24:00,22.5,16.1,30.12,WSW,257,2.0,4.0,76,0.00,,,0.00,Wunderground v.1.15,2013-01-15 17:24:00,
2013-01-15 11:29:00,22.7,16.0,30.11,SW,233,2.0,4.0,75,0.00,,,0.00,Wunderground v.1.15,2013-01-15 17:29:00,
2013-01-15 11:34:00,22.9,16.2,30.11,WSW,258,3.0,4.0,75,0.00,,,0.00,Wunderground v.1.15,2013-01-15 17:34:00,
2013-01-15 11:40:00,23.2,16.4,30.11,WSW,257,2.0,3.0,75,0.00,,,0.00,Wunderground v.1.15,2013-01-15 17:40:00,
2013-01-15 11:45:00,23.4,16.6,30.11,WSW,239,3.0,4.0,75,0.00,,,0.00,Wunderground v.1.15,2013-01-15 17:45:00,
2013-01-15 11:50:00,23.6,16.8,30.10,SW,226,3.0,3.0,75,0.00,,,0.00,Wunderground v.1.15,2013-01-15 17:50:00,
2013-01-15 11:55:00,24.0,16.9,30.10,West,260,3.0,3.0,74,0.00,,,0.00,Wunderground v.1.15,2013-01-15 17:55:00,
2013-01-15 12:00:00,24.3,17.2,30.10,West,273,3.0,3.0,74,0.00,,,0.00,Wunderground v.1.15,2013-01-15 18:00:00,
2013-01-15 12:06:00,24.7,17.3,30.10,WSW,257,3.0,5.0,73,0.00,,,0.00,Wunderground v.1.15,2013-01-15 18:06:00,
2013-01-15 12:11:00,24.9,17.1,30.09,West,267,3.0,4.0,72,0.00,,,0.00,Wunderground v.1.15,2013-01-15 18:11:00,
2013-01-15 12:16:00,25.1,17.3,30.09,West,263,3.0,4.0,72,0.00,,,0.00,Wunderground v.1.15,2013-01-15 18:16:00,
2013-01-15 12:21:00,25.4,17.3,30.09,WSW,253,3.0,3.0,71,0.00,,,0.00,Wunderground v.1.15,2013-01-15 18:21:00,
2013-01-15 12:26:00,25.5,17.4,30.08,WSW,257,3.0,5.0,71,0.00,,,0.00,Wunderground v.1.15,2013-01-15 18:26:00,
2013-01-15 12:32:00,25.7,17.3,30.08,NW,319,3.0,6.0,70,0.00,,,0.00,Wunderground v.1.15,2013-01-15 18:32:00,
2013-01-15 12:37:00,25.8,17.4,30.08,WSW,252,3.0,6.0,70,0.00,,,0.00,Wunderground v.1.15,2013-01-15 18:37:00,
2013-01-15 12:42:00,25.9,17.5,30.07,WSW,257,3.0,4.0,70,0.00,,,0.00,Wunderground v.1.15,2013-01-15 18:42:00,
2013-01-15 12:47:00,26.1,17.6,30.07,West,260,3.0,5.0,70,0.00,,,0.00,Wunderground v.1.15,2013-01-15 18:47:00,
2013-01-15 12:52:00,26.3,17.8,30.07,West,271,3.0,3.0,70,0.00,,,0.00,Wunderground v.1.15,2013-01-15 18:52:00,
2013-01-15 12:58:00,26.6,18.1,30.06,West,264,3.0,4.0,70,0.00,,,0.00,Wunderground v.1.15,2013-01-15 18:58:00,
2013-01-15 13:03:00,26.7,17.9,30.06,SW,222,3.0,6.0,69,0.00,,,0.00,Wunderground v.1.15,2013-01-15 19:03:00,
2013-01-15 13:08:00,26.9,18.1,30.06,West,281,4.0,6.0,69,0.00,,,0.00,Wunderground v.1.15,2013-01-15 19:08:00,
2013-01-15 13:13:00,27.1,18.3,30.05,SW,229,3.0,5.0,69,0.00,,,0.00,Wunderground v.1.15,2013-01-15 19:13:00,
2013-01-15 13:18:00,27.3,18.5,30.05,West,263,3.0,5.0,69,0.00,,,0.00,Wunderground v.1.15,2013-01-15 19:18:00,
2013-01-15 13:23:00,27.6,18.8,30.05,WNW,294,3.0,4.0,69,0.00,,,0.00,Wunderground v.1.15,2013-01-15 19:23:00,
2013-01-15 13:29:00,27.8,18.6,30.04,SW,236,3.0,5.0,68,0.00,,,0.00,Wunderground v.1.15,2013-01-15 19:29:00,
2013-01-15 13:34:00,28.0,19.1,30.04,SW,226,3.0,4.0,69,0.00,,,0.00,Wunderground v.1.15,2013-01-15 19:34:00,
2013-01-15 13:39:00,28.1,19.2,30.04,WSW,245,4.0,6.0,69,0.00,,,0.00,Wunderground v.1.15,2013-01-15 19:39:00,
2013-01-15 13:44:00,28.4,19.5,30.03,West,264,3.0,4.0,69,0.00,,,0.00,Wunderground v.1.15,2013-01-15 19:44:00,
2013-01-15 13:49:00,28.7,19.8,30.03,West,266,3.0,4.0,69,0.00,,,0.00,Wunderground v.1.15,2013-01-15 19:49:00,
2013-01-15 13:54:00,28.9,20.0,30.03,WSW,257,3.0,4.0,69,0.00,,,0.00,Wunderground v.1.15,2013-01-15 19:54:00,
2013-01-15 13:59:00,29.0,20.1,30.02,West,268,2.0,3.0,69,0.00,,,0.00,Wunderground v.1.15,2013-01-15 19:59:00,
2013-01-15 14:04:00,29.1,19.8,30.02,WSW,238,3.0,5.0,68,0.00,,,0.00,Wunderground v.1.15,2013-01-15 20:04:00,
2013-01-15 14:10:00,29.0,20.1,30.03,South,181,3.0,4.0,69,0.00,,,0.00,Wunderground v.1.15,2013-01-15 20:10:00,
2013-01-15 14:15:00,29.0,20.1,30.02,WSW,243,3.0,4.0,69,0.00,,,0.00,Wunderground v.1.15,2013-01-15 20:15:00,
2013-01-15 14:20:00,29.2,19.9,30.02,WSW,252,3.0,3.0,68,0.00,,,0.00,Wunderground v.1.15,2013-01-15 20:20:00,
2013-01-15 14:25:00,29.4,20.5,30.02,WSW,255,3.0,4.0,69,0.00,,,0.00,Wunderground v.1.15,2013-01-15 20:25:00,
2013-01-15 14:31:00,29.5,20.6,30.02,WSW,252,3.0,4.0,69,0.00,,,0.00,Wunderground v.1.15,2013-01-15 20:31:00,
2013-01-15 14:36:00,29.7,20.4,30.02,WSW,255,3.0,4.0,68,0.00,,,0.00,Wunderground v.1.15,2013-01-15 20:36:00,
2013-01-15 14:41:00,29.8,20.9,30.02,West,263,3.0,4.0,69,0.00,,,0.00,Wunderground v.1.15,2013-01-15 20:41:00,
2013-01-15 14:47:00,29.8,20.2,30.02,WSW,245,4.0,4.0,67,0.00,,,0.00,Wunderground v.1.15,2013-01-15 20:47:00,
2013-01-15 14:52:00,29.7,20.1,30.02,WSW,242,4.0,4.0,67,0.00,,,0.00,Wunderground v.1.15,2013-01-15 20:52:00,
2013-01-15 14:57:00,29.8,20.2,30.01,West,262,4.0,7.0,67,0.00,,,0.00,Wunderground v.1.15,2013-01-15 20:57:00,
2013-01-15 15:02:00,29.7,20.4,30.01,WNW,283,4.0,4.0,68,0.00,,,0.00,Wunderground v.1.15,2013-01-15 21:02:00,
2013-01-15 15:07:00,29.8,20.9,30.01,WSW,243,3.0,4.0,69,0.00,,,0.00,Wunderground v.1.15,2013-01-15 21:07:00,
2013-01-15 15:12:00,29.8,20.5,30.01,SW,229,3.0,7.0,68,0.00,,,0.00,Wunderground v.1.15,2013-01-15 21:12:00,
2013-01-15 15:17:00,29.7,19.7,30.01,WSW,249,4.0,8.0,66,0.00,,,0.00,Wunderground v.1.15,2013-01-15 21:17:00,
2013-01-15 15:23:00,29.6,20.3,30.00,West,260,4.0,6.0,68,0.00,,,0.00,Wunderground v.1.15,2013-01-15 21:23:00,
2013-01-15 15:28:00,29.7,20.1,30.00,West,260,4.0,6.0,67,0.00,,,0.00,Wunderground v.1.15,2013-01-15 21:28:00,
2013-01-15 15:33:00,29.7,19.7,30.00,West,260,3.0,5.0,66,0.00,,,0.00,Wunderground v.1.15,2013-01-15 21:33:00,
2013-01-15 15:39:00,29.6,20.0,30.00,West,259,3.0,5.0,67,0.00,,,0.00,Wunderground v.1.15,2013-01-15 21:39:00,
2013-01-15 15:44:00,29.6,20.0,30.00,West,267,2.0,5.0,67,0.00,,,0.00,Wunderground v.1.15,2013-01-15 21:44:00,
2013-01-15 15:49:00,29.6,20.0,30.00,WSW,255,2.0,5.0,67,0.00,,,0.00,Wunderground v.1.15,2013-01-15 21:49:00,
2013-01-15 15:54:00,29.6,20.0,29.99,WSW,250,2.0,7.0,67,0.00,,,0.00,Wunderground v.1.15,2013-01-15 21:54:00,
2013-01-15 15:59:00,29.5,19.9,30.00,West,273,2.0,7.0,67,0.00,,,0.00,Wunderground v.1.15,2013-01-15 21:59:00,
2013-01-15 16:05:00,29.4,19.4,30.00,SW,235,2.0,3.0,66,0.00,,,0.00,Wunderground v.1.15,2013-01-15 22:05:00,
2013-01-15 16:10:00,29.3,18.6,30.00,West,269,3.0,5.0,64,0.00,,,0.00,Wunderground v.1.15,2013-01-15 22:10:00,
2013-01-15 16:15:00,29.3,18.6,30.00,West,263,3.0,6.0,64,0.00,,,0.00,Wunderground v.1.15,2013-01-15 22:15:00,
2013-01-15 16:20:00,29.2,18.5,30.00,WSW,257,3.0,3.0,64,0.00,,,0.00,Wunderground v.1.15,2013-01-15 22:20:00,
2013-01-15 16:25:00,29.2,18.5,29.99,WSW,248,3.0,3.0,64,0.00,,,0.00,Wunderground v.1.15,2013-01-15 22:25:00,
2013-01-15 16:30:00,29.0,18.3,29.99,WSW,250,3.0,4.0,64,0.00,,,0.00,Wunderground v.1.15,2013-01-15 22:30:00,
2013-01-15 16:36:00,28.9,18.2,29.99,WSW,248,3.0,4.0,64,0.00,,,0.00,Wunderground v.1.15,2013-01-15 22:36:00,
2013-01-15 16:41:00,28.7,18.1,29.99,West,260,3.0,3.0,64,0.00,,,0.00,Wunderground v.1.15,2013-01-15 22:41:00,
2013-01-15 16:46:00,28.4,17.8,29.99,SW,228,3.0,3.0,64,0.00,,,0.00,Wunderground v.1.15,2013-01-15 22:46:00,
2013-01-15 16:51:00,28.1,17.5,29.99,WSW,238,2.0,2.0,64,0.00,,,0.00,Wunderground v.1.15,2013-01-15 22:51:00,
2013-01-15 16:56:00,28.0,17.7,29.99,WSW,245,2.0,4.0,65,0.00,,,0.00,Wunderground v.1.15,2013-01-15 22:56:00,
2013-01-15 17:01:00,27.8,17.2,29.99,WSW,250,3.0,3.0,64,0.00,,,0.00,Wunderground v.1.15,2013-01-15 23:01:00,
2013-01-15 17:06:00,27.5,17.3,29.99,West,260,2.0,3.0,65,0.00,,,0.00,Wunderground v.1.15,2013-01-15 23:06:00,
2013-01-15 17:12:00,27.3,17.4,29.98,WSW,257,2.0,2.0,66,0.00,,,0.00,Wunderground v.1.15,2013-01-15 23:12:00,
2013-01-15 17:17:00,26.9,17.0,29.99,WSW,246,1.0,2.0,66,0.00,,,0.00,Wunderground v.1.15,2013-01-15 23:17:00,
2013-01-15 17:22:00,26.5,17.0,29.98,WSW,244,1.0,1.0,67,0.00,,,0.00,Wunderground v.1.15,2013-01-15 23:22:00,
2013-01-15 17:27:00,26.2,17.1,29.98,WSW,240,0.0,1.0,68,0.00,,,0.00,Wunderground v.1.15,2013-01-15 23:27:00,
2013-01-15 17:32:00,26.0,16.9,29.98,SW,228,0.0,1.0,68,0.00,,,0.00,Wunderground v.1.15,2013-01-15 23:32:00,
2013-01-15 17:38:00,25.9,16.8,29.98,WSW,238,1.0,1.0,68,0.00,,,0.00,Wunderground v.1.15,2013-01-15 23:38:00,
2013-01-15 17:43:00,25.8,16.7,29.98,WSW,238,1.0,1.0,68,0.00,,,0.00,Wunderground v.1.15,2013-01-15 23:43:00,
2013-01-15 17:48:00,25.6,16.5,29.98,WSW,252,0.0,1.0,68,0.00,,,0.00,Wunderground v.1.15,2013-01-15 23:48:00,
2013-01-15 17:53:00,25.3,16.5,29.97,SW,232,0.0,1.0,69,0.00,,,0.00,Wunderground v.1.15,2013-01-15 23:53:00,
2013-01-15 17:58:00,25.0,16.6,29.97,SW,235,0.0,1.0,70,0.00,,,0.00,Wunderground v.1.15,2013-01-15 23:58:00,
2013-01-15 18:03:00,24.9,16.5,29.97,WSW,242,0.0,1.0,70,0.00,,,0.00,Wunderground v.1.15,2013-01-16 00:03:00,
2013-01-15 18:08:00,24.8,16.4,29.97,WSW,251,0.0,1.0,70,0.00,,,0.00,Wunderground v.1.15,2013-01-16 00:08:00,
2013-01-15 18:13:00,24.6,16.5,29.96,WSW,239,0.0,1.0,71,0.00,,,0.00,Wunderground v.1.15,2013-01-16 00:13:00,
2013-01-15 18:19:00,24.3,16.2,29.96,WSW,246,0.0,1.0,71,0.00,,,0.00,Wunderground v.1.15,2013-01-16 00:19:00,
2013-01-15 18:24:00,24.2,16.5,29.95,WSW,256,0.0,2.0,72,0.00,,,0.00,Wunderground v.1.15,2013-01-16 00:24:00,
2013-01-15 18:29:00,24.2,16.8,29.95,WSW,245,0.0,2.0,73,0.00,,,0.00,Wunderground v.1.15,2013-01-16 00:29:00,
2013-01-15 18:34:00,24.3,16.9,29.95,SW,222,0.0,1.0,73,0.00,,,0.00,Wunderground v.1.15,2013-01-16 00:34:00,
2013-01-15 18:39:00,24.3,17.2,29.95,WSW,245,1.0,1.0,74,0.00,,,0.00,Wunderground v.1.15,2013-01-16 00:39:00,
2013-01-15 18:45:00,24.5,17.7,29.95,SW,225,1.0,1.0,75,0.00,,,0.00,Wunderground v.1.15,2013-01-16 00:45:00,
2013-01-15 18:50:00,24.5,18.0,29.94,SW,233,1.0,1.0,76,0.00,,,0.00,Wunderground v.1.15,2013-01-16 00:50:00,
2013-01-15 18:55:00,24.6,18.1,29.95,WSW,250,1.0,2.0,76,0.00,,,0.00,Wunderground v.1.15,2013-01-16 00:55:00,
2013-01-15 19:00:00,24.7,18.2,29.94,SW,214,1.0,1.0,76,0.00,,,0.00,Wunderground v.1.15,2013-01-16 01:00:00,
2013-01-15 19:05:00,24.9,18.7,29.93,WSW,245,2.0,3.0,77,0.00,,,0.00,Wunderground v.1.15,2013-01-16 01:05:00,
2013-01-15 19:11:00,25.1,18.9,29.94,WSW,239,2.0,2.0,77,0.00,,,0.00,Wunderground v.1.15,2013-01-16 01:11:00,
2013-01-15 19:16:00,25.3,18.8,29.94,SW,226,2.0,3.0,76,0.00,,,0.00,Wunderground v.1.15,2013-01-16 01:16:00,
2013-01-15 19:21:00,25.4,18.9,29.93,SE,145,2.0,2.0,76,0.00,,,0.00,Wunderground v.1.15,2013-01-16 01:21:00,
2013-01-15 19:26:00,25.4,18.9,29.93,SW,230,2.0,3.0,76,0.00,,,0.00,Wunderground v.1.15,2013-01-16 01:26:00,
2013-01-15 19:31:00,25.4,18.9,29.93,WSW,242,2.0,2.0,76,0.00,,,0.00,Wunderground v.1.15,2013-01-16 01:31:00,
2013-01-15 19:37:00,25.5,18.7,29.92,SW,231,2.0,4.0,75,0.00,,,0.00,Wunderground v.1.15,2013-01-16 01:37:00,
2013-01-15 19:42:00,25.5,19.0,29.92,SW,221,2.0,3.0,76,0.00,,,0.00,Wunderground v.1.15,2013-01-16 01:42:00,
2013-01-15 19:47:00,25.4,18.9,29.92,West,259,2.0,4.0,76,0.00,,,0.00,Wunderground v.1.15,2013-01-16 01:47:00,
2013-01-15 19:52:00,25.4,18.9,29.91,West,261,2.0,4.0,76,0.00,,,0.00,Wunderground v.1.15,2013-01-16 01:52:00,
2013-01-15 19:57:00,25.3,18.8,29.91,WSW,252,2.0,4.0,76,0.00,,,0.00,Wunderground v.1.15,2013-01-16 01:57:00,
2013-01-15 20:02:00,25.3,18.8,29.91,WSW,242,3.0,3.0,76,0.00,,,0.00,Wunderground v.1.15,2013-01-16 02:02:00,
2013-01-15 20:07:00,25.3,18.8,29.90,SSW,207,3.0,3.0,76,0.00,,,0.00,Wunderground v.1.15,2013-01-16 02:07:00,
2013-01-15 20:12:00,25.3,18.8,29.91,WSW,255,3.0,3.0,76,0.00,,,0.00,Wunderground v.1.15,2013-01-16 02:12:00,
2013-01-15 20:17:00,25.3,18.8,29.90,West,259,3.0,6.0,76,0.00,,,0.00,Wunderground v.1.15,2013-01-16 02:17:00,
2013-01-15 20:22:00,25.1,18.6,29.89,SW,231,2.0,2.0,76,0.00,,,0.00,Wunderground v.1.15,2013-01-16 02:22:00,
2013-01-15 20:27:00,25.0,18.8,29.89,WSW,257,2.0,2.0,77,0.00,,,0.00,Wunderground v.1.15,2013-01-16 02:27:00,
2013-01-15 20:33:00,25.0,18.8,29.89,West,259,2.0,4.0,77,0.00,,,0.00,Wunderground v.1.15,2013-01-16 02:33:00,
2013-01-15 20:38:00,25.0,18.8,29.88,West,259,3.0,4.0,77,0.00,,,0.00,Wunderground v.1.15,2013-01-16 02:38:00,
2013-01-15 20:43:00,24.9,18.7,29.87,SW,222,2.0,3.0,77,0.00,,,0.00,Wunderground v.1.15,2013-01-16 02:43:00,
2013-01-15 20:48:00,24.8,18.6,29.87,WSW,249,2.0,4.0,77,0.00,,,0.00,Wunderground v.1.15,2013-01-16 02:48:00,
2013-01-15 20:53:00,24.7,18.5,29.87,West,263,2.0,4.0,77,0.00,,,0.00,Wunderground v.1.15,2013-01-16 02:53:00,
2013-01-15 20:59:00,24.8,18.6,29.87,WSW,249,3.0,4.0,77,0.00,,,0.00,Wunderground v.1.15,2013-01-16 02:59:00,
2013-01-15 21:04:00,24.7,18.5,29.86,SW,226,3.0,5.0,77,0.00,,,0.00,Wunderground v.1.15,2013-01-16 03:04:00,
2013-01-15 21:09:00,24.6,18.4,29.86,SW,228,3.0,5.0,77,0.00,,,0.00,Wunderground v.1.15,2013-01-16 03:09:00,
2013-01-15 21:14:00,24.6,18.4,29.85,WSW,245,3.0,4.0,77,0.00,,,0.00,Wunderground v.1.15,2013-01-16 03:14:00,
2013-01-15 21:19:00,24.4,18.5,29.85,SSW,210,2.0,4.0,78,0.00,,,0.00,Wunderground v.1.15,2013-01-16 03:19:00,
2013-01-15 21:25:00,24.4,18.5,29.84,WSW,239,3.0,6.0,78,0.00,,,0.00,Wunderground v.1.15,2013-01-16 03:25:00,
2013-01-15 21:30:00,24.4,18.5,29.84,West,264,3.0,4.0,78,0.00,,,0.00,Wunderground v.1.15,2013-01-16 03:30:00,
2013-01-15 21:35:00,24.4,18.5,29.84,SSW,201,3.0,4.0,78,0.00,,,0.00,Wunderground v.1.15,2013-01-16 03:35:00,
2013-01-15 21:40:00,24.4,18.5,29.84,West,262,3.0,3.0,78,0.00,,,0.00,Wunderground v.1.15,2013-01-16 03:40:00,
2013-01-15 21:45:00,24.3,18.4,29.83,SSW,210,3.0,3.0,78,0.00,,,0.00,Wunderground v.1.15,2013-01-16 03:45:00,
2013-01-15 21:51:00,24.4,18.5,29.83,SSW,203,3.0,3.0,78,0.00,,,0.00,Wunderground v.1.15,2013-01-16 03:51:00,
2013-01-15 21:56:00,24.4,18.5,29.82,WSW,257,3.0,3.0,78,0.00,,,0.00,Wunderground v.1.15,2013-01-16 03:56:00,
2013-01-15 22:01:00,24.4,18.5,29.82,WSW,243,3.0,5.0,78,0.00,,,0.00,Wunderground v.1.15,2013-01-16 04:01:00,
2013-01-15 22:06:00,24.5,18.6,29.82,West,277,3.0,5.0,78,0.00,,,0.00,Wunderground v.1.15,2013-01-16 04:06:00,
2013-01-15 22:11:00,24.7,18.8,29.82,WSW,253,4.0,4.0,78,0.00,,,0.00,Wunderground v.1.15,2013-01-16 04:11:00,
2013-01-15 22:17:00,24.7,18.8,29.82,WSW,239,4.0,4.0,78,0.00,,,0.00,Wunderground v.1.15,2013-01-16 04:17:00,
2013-01-15 22:22:00,24.5,18.6,29.82,WSW,246,3.0,3.0,78,0.00,,,0.00,Wunderground v.1.15,2013-01-16 04:22:00,
2013-01-15 22:27:00,24.5,18.6,29.81,SSW,212,3.0,4.0,78,0.00,,,0.00,Wunderground v.1.15,2013-01-16 04:27:00,
2013-01-15 22:32:00,24.4,18.5,29.81,WSW,256,3.0,4.0,78,0.00,,,0.00,Wunderground v.1.15,2013-01-16 04:32:00,
2013-01-15 22:37:00,24.4,18.5,29.81,WNW,291,3.0,4.0,78,0.00,,,0.00,Wunderground v.1.15,2013-01-16 04:37:00,
2013-01-15 22:43:00,24.3,18.4,29.80,WSW,251,3.0,5.0,78,0.00,,,0.00,Wunderground v.1.15,2013-01-16 04:43:00,
2013-01-15 22:48:00,24.3,18.4,29.80,WSW,249,4.0,6.0,78,0.00,,,0.00,Wunderground v.1.15,2013-01-16 04:48:00,
2013-01-15 22:53:00,24.2,18.6,29.80,West,264,4.0,4.0,79,0.00,,,0.00,Wunderground v.1.15,2013-01-16 04:53:00,
2013-01-15 22:58:00,24.0,18.4,29.79,SSW,207,3.0,6.0,79,0.00,,,0.00,Wunderground v.1.15,2013-01-16 04:58:00,
2013-01-15 23:02:00,24.0,18.4,29.78,WSW,252,4.0,8.0,79,0.00,,,0.00,Wunderground v.1.15,2013-01-16 05:02:00,
2013-01-15 23:04:00,24.0,18.4,29.78,SW,221,4.0,8.0,79,0.00,,,0.00,Wunderground v.1.15,2013-01-16 05:04:00,
2013-01-15 23:05:00,24.0,18.4,29.78,SSW,212,3.0,8.0,79,0.00,,,0.00,Wunderground v.1.15,2013-01-16 05:05:00,
2013-01-15 23:06:00,23.9,18.3,29.78,West,266,3.0,8.0,79,0.00,,,0.00,Wunderground v.1.15,2013-01-16 05:06:00,
2013-01-15 23:11:00,23.9,18.3,29.78,SSW,207,4.0,5.0,79,0.00,,,0.00,Wunderground v.1.15,2013-01-16 05:11:00,
2013-01-15 23:16:00,23.8,18.2,29.78,West,263,4.0,5.0,79,0.00,,,0.00,Wunderground v.1.15,2013-01-16 05:16:00,
2013-01-15 23:21:00,23.8,18.2,29.78,WSW,249,4.0,4.0,79,0.00,,,0.00,Wunderground v.1.15,2013-01-16 05:21:00,
2013-01-15 23:26:00,23.7,18.1,29.77,West,261,4.0,6.0,79,0.00,,,0.00,Wunderground v.1.15,2013-01-16 05:26:00,
2013-01-15 23:32:00,23.4,18.1,29.77,SW,224,3.0,4.0,80,0.00,,,0.00,Wunderground v.1.15,2013-01-16 05:32:00,
2013-01-15 23:37:00,23.4,18.1,29.77,SW,214,3.0,4.0,80,0.00,,,0.00,Wunderground v.1.15,2013-01-16 05:37:00,
2013-01-15 23:42:00,23.3,18.0,29.77,West,276,3.0,3.0,80,0.00,,,0.00,Wunderground v.1.15,2013-01-16 05:42:00,
2013-01-15 23:47:00,23.4,18.1,29.77,West,263,3.0,4.0,80,0.00,,,0.00,Wunderground v.1.15,2013-01-16 05:47:00,
2013-01-15 23:53:00,23.3,18.0,29.76,WSW,241,3.0,4.0,80,0.00,,,0.00,Wunderground v.1.15,2013-01-16 05:53:00,
2013-01-15 23:58:00,23.2,17.9,29.76,WSW,246,3.0,4.0,80,0.00,,,0.00,Wunderground v.1.15,2013-01-16 05:58:00,